Time;durP1;ratioP1;P1;durP2;ratioP2;P2;SDS_P1;SDS_P2;PMS_P1;PMS_P2;Temp;Humidity;BMP_temperature;BMP_pressure;BME280_temperature;BME280_humidity;BME280_pressure;Samples;Min_cycle;Max_cycle;Signal;HPM_P1;HPM_P2
2023/08/02 00:01:53;;;;;;;;;;;;;;;;;;4963317;28;20401;-77
2023/08/02 00:04:41;;;;;;;;;;;;;;;;;;4956131;28;19937;-78
2023/08/02 00:07:27;;;;;;;;;;;;;;;;;;4958226;28;19918;-79
2023/08/02 00:10:14;;;;;;;;;;;;;;;;;;4959090;28;19949;-78
2023/08/02 00:13:01;;;;;;;;;;;;;;;;;;4961550;28;19918;-78
2023/08/02 00:15:47;;;;;;;;;;;;;;;;;;4953853;28;19919;-78
2023/08/02 00:18:34;;;;;;;;;;;;;;;;;;4943594;28;19925;-77
2023/08/02 00:21:20;;;;;;;;;;;;;;;;;;4933865;28;19918;-78
2023/08/02 00:24:08;;;;;;;;;;;;;;;;;;4947825;28;19918;-78
2023/08/02 00:26:55;;;;;;;;;;;;;;;;;;4947849;28;19930;-76
2023/08/02 00:29:41;;;;;;;;;;;;;;;;;;4945616;28;19927;-79
2023/08/02 00:32:28;;;;;;;;;;;;;;;;;;4959868;28;20561;-78
2023/08/02 00:35:14;;;;;;;;;;;;;;;;;;4960325;28;19929;-78
2023/08/02 00:38:01;;;;;;;;;;;;;;;;;;4952680;28;19915;-78
2023/08/02 00:40:48;;;;;;;;;;;;;;;;;;4964970;28;19918;-78
2023/08/02 00:43:35;;;;;;;;;;;;;;;;;;4944329;28;19919;-78
2023/08/02 00:46:21;;;;;;;;;;;;;;;;;;4950966;28;19925;-78
2023/08/02 00:49:08;;;;;;;;;;;;;;;;;;4959015;28;20457;-79
2023/08/02 00:51:54;;;;;;;;;;;;;;;;;;4960465;28;19922;-78
2023/08/02 00:54:41;;;;;;;;;;;;;;;;;;4939177;28;19922;-77
2023/08/02 00:57:28;;;;;;;;;;;;;;;;;;4942909;28;19932;-78
2023/08/02 01:00:14;;;;;;;;;;;;;;;;;;4958151;28;20271;-78
2023/08/02 01:03:01;;;;;;;;;;;;;;;;;;4958143;28;19918;-78
2023/08/02 01:05:47;;;;;;;;;;;;;;;;;;4958981;28;20289;-78
2023/08/02 01:08:34;;;;;;;;;;;;;;;;;;4960218;28;19937;-78
2023/08/02 01:11:20;;;;;;;;;;;;;;;;;;4944432;28;19980;-79
2023/08/02 01:14:07;;;;;;;;;;;;;;;;;;4958839;28;19918;-76
2023/08/02 01:16:53;;;;;;;;;;;;;;;;;;4959268;28;19927;-77
2023/08/02 01:19:40;;;;;;;;;;;;;;;;;;4955818;28;19942;-78
2023/08/02 01:22:26;;;;;;;;;;;;;;;;;;4950915;28;19926;-78
2023/08/02 01:25:13;;;;;;;;;;;;;;;;;;4958002;28;19926;-78
2023/08/02 01:27:59;;;;;;;;;;;;;;;;;;4959004;28;19929;-78
2023/08/02 01:30:46;;;;;;;;;;;;;;;;;;4960233;28;19933;-78
2023/08/02 01:33:32;;;;;;;;;;;;;;;;;;4958912;28;19918;-78
2023/08/02 01:36:19;;;;;;;;;;;;;;;;;;4962444;28;19925;-78
2023/08/02 01:39:05;;;;;;;;;;;;;;;;;;4964584;28;19918;-78
2023/08/02 01:41:52;;;;;;;;;;;;;;;;;;4955103;28;20350;-77
2023/08/02 01:44:38;;;;;;;;;;;;;;;;;;4963146;28;19919;-81
2023/08/02 01:47:25;;;;;;;;;;;;;;;;;;4959675;28;19922;-78
2023/08/02 01:50:11;;;;;;;;;;;;;;;;;;4963383;28;19937;-78
2023/08/02 01:52:58;;;;;;;;;;;;;;;;;;4961938;28;19918;-78
2023/08/02 01:55:44;;;;;;;;;;;;;;;;;;4961901;28;19926;-78
2023/08/02 01:58:31;;;;;;;;;;;;;;;;;;4932548;28;19937;-78
2023/08/02 02:01:17;;;;;;;;;;;;;;;;;;4942728;28;19925;-78
2023/08/02 02:04:04;;;;;;;;;;;;;;;;;;4940526;28;19929;-78
2023/08/02 02:06:50;;;;;;;;;;;;;;;;;;4936381;28;20289;-79
2023/08/02 02:09:37;;;;;;;;;;;;;;;;;;4943272;28;19933;-77
2023/08/02 02:12:23;;;;;;;;;;;;;;;;;;4943369;28;20299;-77
2023/08/02 02:15:10;;;;;;;;;;;;;;;;;;4943804;28;19929;-78
2023/08/02 02:17:56;;;;;;;;;;;;;;;;;;4943681;28;19919;-78
2023/08/02 02:20:43;;;;;;;;;;;;;;;;;;4941930;28;19922;-78
2023/08/02 02:23:29;;;;;;;;;;;;;;;;;;4942221;28;19922;-77
2023/08/02 02:26:16;;;;;;;;;;;;;;;;;;4944518;28;19918;-78
2023/08/02 02:29:02;;;;;;;;;;;;;;;;;;4942392;28;19933;-80
2023/08/02 02:31:48;;;;;;;;;;;;;;;;;;4943148;28;20298;-78
2023/08/02 02:34:35;;;;;;;;;;;;;;;;;;4942511;28;19925;-77
2023/08/02 02:37:21;;;;;;;;;;;;;;;;;;4943377;28;19919;-77
2023/08/02 02:40:08;;;;;;;;;;;;;;;;;;4940537;28;19936;-78
2023/08/02 02:42:54;;;;;;;;;;;;;;;;;;4943901;28;19922;-78
2023/08/02 02:45:41;;;;;;;;;;;;;;;;;;4941718;28;20293;-77
2023/08/02 02:48:27;;;;;;;;;;;;;;;;;;4942393;28;19919;-76
2023/08/02 02:51:14;;;;;;;;;;;;;;;;;;4941263;28;19930;-77
2023/08/02 02:54:00;;;;;;;;;;;;;;;;;;4940931;28;19923;-76
2023/08/02 02:56:47;;;;;;;;;;;;;;;;;;4942686;28;19926;-77
2023/08/02 02:59:33;;;;;;;;;;;;;;;;;;4946120;28;20322;-78
2023/08/02 03:02:20;;;;;;;;;;;;;;;;;;4942023;28;20905;-79
2023/08/02 03:05:06;;;;;;;;;;;;;;;;;;4960432;28;19918;-78
2023/08/02 03:07:53;;;;;;;;;;;;;;;;;;4963610;28;19918;-78
2023/08/02 03:10:39;;;;;;;;;;;;;;;;;;4961550;28;20415;-78
2023/08/02 03:13:26;;;;;;;;;;;;;;;;;;4961536;28;19918;-79
2023/08/02 03:16:12;;;;;;;;;;;;;;;;;;4960614;28;19918;-80
2023/08/02 03:18:59;;;;;;;;;;;;;;;;;;4961720;28;20377;-79
2023/08/02 03:21:45;;;;;;;;;;;;;;;;;;4962392;28;19925;-80
2023/08/02 03:24:32;;;;;;;;;;;;;;;;;;4961555;28;19918;-79
2023/08/02 03:27:18;;;;;;;;;;;;;;;;;;4961965;28;19918;-78
2023/08/02 03:30:04;;;;;;;;;;;;;;;;;;4963303;28;19930;-79
2023/08/02 03:32:51;;;;;;;;;;;;;;;;;;4947028;28;20654;-79
2023/08/02 03:35:37;;;;;;;;;;;;;;;;;;4948382;28;19923;-79
2023/08/02 03:38:24;;;;;;;;;;;;;;;;;;4960872;28;19926;-79
2023/08/02 03:41:10;;;;;;;;;;;;;;;;;;4959992;28;20313;-77
2023/08/02 03:43:57;;;;;;;;;;;;;;;;;;4962487;28;19925;-78
2023/08/02 03:46:43;;;;;;;;;;;;;;;;;;4954731;28;19922;-78
2023/08/02 03:49:30;;;;;;;;;;;;;;;;;;4940036;28;20772;-78
2023/08/02 03:52:16;;;;;;;;;;;;;;;;;;4945208;28;20577;-78
2023/08/02 03:55:03;;;;;;;;;;;;;;;;;;4943083;28;19922;-79
2023/08/02 03:57:49;;;;;;;;;;;;;;;;;;4939587;28;20430;-79
2023/08/02 04:00:36;;;;;;;;;;;;;;;;;;4941143;28;19927;-79
2023/08/02 04:03:22;;;;;;;;;;;;;;;;;;4961521;28;19919;-78
2023/08/02 04:06:09;;;;;;;;;;;;;;;;;;4943759;28;19926;-77
2023/08/02 04:08:55;;;;;;;;;;;;;;;;;;4941088;28;21224;-77
2023/08/02 04:11:42;;;;;;;;;;;;;;;;;;4957608;28;19932;-77
2023/08/02 04:14:28;;;;;;;;;;;;;;;;;;4952760;28;19922;-77
2023/08/02 04:17:15;;;;;;;;;;;;;;;;;;4950623;28;19923;-77
2023/08/02 04:20:01;;;;;;;;;;;;;;;;;;4941429;28;19927;-78
2023/08/02 04:22:49;;;;;;;;;;;;;;;;;;4928733;28;19929;-77
2023/08/02 04:25:36;;;;;;;;;;;;;;;;;;4959057;28;20386;-78
2023/08/02 04:28:22;;;;;;;;;;;;;;;;;;4963033;28;20017;-77
2023/08/02 04:31:09;;;;;;;;;;;;;;;;;;4956943;28;19931;-78
2023/08/02 04:33:55;;;;;;;;;;;;;;;;;;4944421;28;19980;-76
2023/08/02 04:36:42;;;;;;;;;;;;;;;;;;4940617;28;19922;-78
2023/08/02 04:39:28;;;;;;;;;;;;;;;;;;4938661;28;19925;-77
2023/08/02 04:42:15;;;;;;;;;;;;;;;;;;4940850;28;20392;-78
2023/08/02 04:45:01;;;;;;;;;;;;;;;;;;4958900;28;19918;-77
2023/08/02 04:47:48;;;;;;;;;;;;;;;;;;4940595;28;19923;-77
2023/08/02 04:50:34;;;;;;;;;;;;;;;;;;4962949;28;19930;-78
2023/08/02 04:53:21;;;;;;;;;;;;;;;;;;4962854;28;19926;-78
2023/08/02 04:56:07;;;;;;;;;;;;;;;;;;4961089;28;19926;-78
2023/08/02 04:58:54;;;;;;;;;;;;;;;;;;4961072;28;20307;-78
2023/08/02 05:01:40;;;;;;;;;;;;;;;;;;4942544;28;19923;-79
2023/08/02 05:04:27;;;;;;;;;;;;;;;;;;4944201;28;20684;-78
2023/08/02 05:07:13;;;;;;;;;;;;;;;;;;4962826;28;19922;-78
2023/08/02 05:10:03;;;;;;;;;;;;;;;;;;4957587;28;19941;-78
2023/08/02 05:12:50;;;;;;;;;;;;;;;;;;4950633;28;19923;-78
2023/08/02 05:15:36;;;;;;;;;;;;;;;;;;4946813;28;19929;-78
2023/08/02 05:18:23;;;;;;;;;;;;;;;;;;4944039;28;19926;-77
2023/08/02 05:21:09;;;;;;;;;;;;;;;;;;4946308;28;19929;-77
2023/08/02 05:23:56;;;;;;;;;;;;;;;;;;4941983;28;20302;-78
2023/08/02 05:26:42;;;;;;;;;;;;;;;;;;4944108;28;19926;-78
2023/08/02 05:29:29;;;;;;;;;;;;;;;;;;4945421;28;19933;-77
2023/08/02 05:32:15;;;;;;;;;;;;;;;;;;4945824;28;19950;-78
2023/08/02 05:35:03;;;;;;;;;;;;;;;;;;4946916;28;19934;-76
2023/08/02 05:37:49;;;;;;;;;;;;;;;;;;4943242;28;19937;-78
2023/08/02 05:40:36;;;;;;;;;;;;;;;;;;4943499;28;20295;-78
2023/08/02 05:43:22;;;;;;;;;;;;;;;;;;4943636;28;19922;-77
2023/08/02 05:46:09;;;;;;;;;;;;;;;;;;4946565;28;19926;-79
2023/08/02 05:48:55;;;;;;;;;;;;;;;;;;4941970;28;19929;-78
2023/08/02 05:51:42;;;;;;;;;;;;;;;;;;4946259;28;19928;-77
2023/08/02 05:54:28;;;;;;;;;;;;;;;;;;4944832;28;19923;-78
2023/08/02 05:57:15;;;;;;;;;;;;;;;;;;4947803;28;20611;-77
2023/08/02 06:00:01;;;;;;;;;;;;;;;;;;4945292;28;19938;-78
2023/08/02 06:02:48;;;;;;;;;;;;;;;;;;4943210;28;19922;-78
2023/08/02 06:05:34;;;;;;;;;;;;;;;;;;4947590;28;20331;-79
2023/08/02 06:08:21;;;;;;;;;;;;;;;;;;4945418;28;19927;-79
2023/08/02 06:11:07;;;;;;;;;;;;;;;;;;4943202;28;19933;-78
2023/08/02 06:13:54;;;;;;;;;;;;;;;;;;4950280;28;19948;-78
2023/08/02 06:16:40;;;;;;;;;;;;;;;;;;4944366;28;20597;-79
2023/08/02 06:19:27;;;;;;;;;;;;;;;;;;4942134;28;19926;-78
2023/08/02 06:22:15;;;;;;;;;;;;;;;;;;4946463;28;19922;-78
2023/08/02 06:25:01;;;;;;;;;;;;;;;;;;4943134;28;19922;-78
2023/08/02 06:27:48;;;;;;;;;;;;;;;;;;4941915;28;19925;-80
2023/08/02 06:30:34;;;;;;;;;;;;;;;;;;4954280;28;19937;-78
2023/08/02 06:33:21;;;;;;;;;;;;;;;;;;4945100;28;19929;-78
2023/08/02 06:36:07;;;;;;;;;;;;;;;;;;4943896;28;19922;-78
2023/08/02 06:38:54;;;;;;;;;;;;;;;;;;4942413;28;19918;-78
2023/08/02 06:41:40;;;;;;;;;;;;;;;;;;4941557;28;19919;-78
2023/08/02 06:44:27;;;;;;;;;;;;;;;;;;4944290;28;19926;-79
2023/08/02 06:47:13;;;;;;;;;;;;;;;;;;4951720;28;19969;-78
2023/08/02 06:50:00;;;;;;;;;;;;;;;;;;4945866;28;19926;-77
2023/08/02 06:52:46;;;;;;;;;;;;;;;;;;4946355;28;19922;-77
2023/08/02 06:55:33;;;;;;;;;;;;;;;;;;4944738;28;19922;-77
2023/08/02 06:58:19;;;;;;;;;;;;;;;;;;4954814;28;19948;-78
2023/08/02 07:01:06;;;;;;;;;;;;;;;;;;4946062;28;19922;-77
2023/08/02 07:03:52;;;;;;;;;;;;;;;;;;4948566;28;19925;-78
2023/08/02 07:06:39;;;;;;;;;;;;;;;;;;4943718;28;19929;-80
2023/08/02 07:09:27;;;;;;;;;;;;;;;;;;4948472;28;19976;-79
2023/08/02 07:12:14;;;;;;;;;;;;;;;;;;4945152;28;19928;-78
2023/08/02 07:15:00;;;;;;;;;;;;;;;;;;4943072;28;19923;-78
2023/08/02 07:17:47;;;;;;;;;;;;;;;;;;4944225;28;19918;-79
2023/08/02 07:20:34;;;;;;;;;;;;;;;;;;4963920;28;19922;-80
2023/08/02 07:23:20;;;;;;;;;;;;;;;;;;4956709;28;19922;-77
2023/08/02 07:26:07;;;;;;;;;;;;;;;;;;4946710;28;19945;-80
2023/08/02 07:28:54;;;;;;;;;;;;;;;;;;4942676;28;21089;-78
2023/08/02 07:31:40;;;;;;;;;;;;;;;;;;4944846;28;19984;-78
2023/08/02 07:34:27;;;;;;;;;;;;;;;;;;4963805;28;19926;-78
2023/08/02 07:37:13;;;;;;;;;;;;;;;;;;4965098;28;19933;-78
2023/08/02 07:40:00;;;;;;;;;;;;;;;;;;4955557;28;19924;-78
2023/08/02 07:42:46;;;;;;;;;;;;;;;;;;4941944;28;19953;-77
2023/08/02 07:45:33;;;;;;;;;;;;;;;;;;4942833;28;19923;-73
2023/08/02 07:48:19;;;;;;;;;;;;;;;;;;4945903;28;19929;-77
2023/08/02 07:51:06;;;;;;;;;;;;;;;;;;4945618;28;19930;-77
2023/08/02 07:53:52;;;;;;;;;;;;;;;;;;4943931;28;19961;-77
2023/08/02 07:56:39;;;;;;;;;;;;;;;;;;4941986;28;19922;-76
2023/08/02 07:59:25;;;;;;;;;;;;;;;;;;4959978;28;19936;-75
2023/08/02 08:02:12;;;;;;;;;;;;;;;;;;4962218;28;20563;-77
2023/08/02 08:04:58;;;;;;;;;;;;;;;;;;4964959;28;19932;-76
2023/08/02 08:07:45;;;;;;;;;;;;;;;;;;4967408;28;19922;-75
2023/08/02 08:10:31;;;;;;;;;;;;;;;;;;4967792;28;19937;-75
2023/08/02 08:13:18;;;;;;;;;;;;;;;;;;4966166;28;19934;-75
2023/08/02 08:16:04;;;;;;;;;;;;;;;;;;4978113;28;19921;-75
2023/08/02 08:18:50;;;;;;;;;;;;;;;;;;4984880;28;19922;-76
2023/08/02 08:21:37;;;;;;;;;;;;;;;;;;4985641;28;19925;-76
2023/08/02 08:24:23;;;;;;;;;;;;;;;;;;4979878;28;19924;-76
2023/08/02 08:27:10;;;;;;;;;;;;;;;;;;4986547;28;19929;-76
2023/08/02 08:29:56;;;;;;;;;;;;;;;;;;4987367;28;19934;-75
2023/08/02 08:32:43;;;;;;;;;;;;;;;;;;4976074;28;19932;-76
2023/08/02 08:35:29;;;;;;;;;;;;;;;;;;4975259;28;19918;-75
2023/08/02 08:38:16;;;;;;;;;;;;;;;;;;4968501;28;20202;-76
2023/08/02 08:41:02;;;;;;;;;;;;;;;;;;4964758;28;19994;-75
2023/08/02 08:43:49;;;;;;;;;;;;;;;;;;4977057;28;20492;-76
2023/08/02 08:46:36;;;;;;;;;;;;;;;;;;4987767;28;19929;-76
2023/08/02 08:49:23;;;;;;;;;;;;;;;;;;4981661;28;19943;-76
2023/08/02 08:52:09;;;;;;;;;;;;;;;;;;4975206;28;19937;-77
2023/08/02 08:54:56;;;;;;;;;;;;;;;;;;4968925;28;19919;-77
2023/08/02 08:57:42;;;;;;;;;;;;;;;;;;4953056;28;19933;-76
2023/08/02 09:00:31;;;;;;;;;;;;;;;;;;4944851;28;19926;-75
2023/08/02 09:03:19;;;;;;;;;;;;;;;;;;4945855;28;21351;-76
2023/08/02 09:06:06;;;;;;;;;;;;;;;;;;4944374;28;19922;-77
2023/08/02 09:08:52;;;;;;;;;;;;;;;;;;4945121;28;19934;-77
2023/08/02 09:11:39;;;;;;;;;;;;;;;;;;4932811;28;19946;-75
2023/08/02 09:14:25;;;;;;;;;;;;;;;;;;4926184;28;19919;-75
2023/08/02 09:17:15;;;;;;;;;;;;;;;;;;4929985;28;19927;-77
2023/08/02 09:20:01;;;;;;;;;;;;;;;;;;4944889;28;19927;-76
2023/08/02 09:22:48;;;;;;;;;;;;;;;;;;4942890;28;19928;-77
2023/08/02 09:25:34;;;;;;;;;;;;;;;;;;4925510;28;19923;-78
2023/08/02 09:28:21;;;;;;;;;;;;;;;;;;4931914;28;20662;-79
2023/08/02 09:31:07;;;;;;;;;;;;;;;;;;4922040;28;19930;-77
2023/08/02 09:33:54;;;;;;;;;;;;;;;;;;4938738;28;19926;-79
2023/08/02 09:36:40;;;;;;;;;;;;;;;;;;4931774;28;19926;-78
2023/08/02 09:39:27;;;;;;;;;;;;;;;;;;4953819;28;19927;-77
2023/08/02 09:42:13;;;;;;;;;;;;;;;;;;4923447;28;19942;-78
2023/08/02 09:45:00;;;;;;;;;;;;;;;;;;4924163;29;20370;-75
2023/08/02 09:47:46;;;;;;;;;;;;;;;;;;4926497;28;20007;-76
2023/08/02 09:50:33;;;;;;;;;;;;;;;;;;4932775;28;19937;-76
2023/08/02 09:53:20;;;;;;;;;;;;;;;;;;4923301;28;20443;-77
2023/08/02 09:56:06;;;;;;;;;;;;;;;;;;4925546;29;20698;-77
2023/08/02 09:58:53;;;;;;;;;;;;;;;;;;4942461;28;19970;-79
2023/08/02 10:01:39;;;;;;;;;;;;;;;;;;4942878;28;20013;-78
2023/08/02 10:04:26;;;;;;;;;;;;;;;;;;4944326;28;19946;-78
2023/08/02 10:07:12;;;;;;;;;;;;;;;;;;4942556;28;19929;-77
2023/08/02 10:09:59;;;;;;;;;;;;;;;;;;4944017;28;20275;-75
2023/08/02 10:12:45;;;;;;;;;;;;;;;;;;4946007;28;19926;-76
2023/08/02 10:15:32;;;;;;;;;;;;;;;;;;4941369;28;19950;-75
2023/08/02 10:18:18;;;;;;;;;;;;;;;;;;4947820;28;19923;-76
2023/08/02 10:21:05;;;;;;;;;;;;;;;;;;4943929;28;19927;-75
2023/08/02 10:23:51;;;;;;;;;;;;;;;;;;4939333;28;19925;-75
2023/08/02 10:26:38;;;;;;;;;;;;;;;;;;4940967;28;19922;-76
2023/08/02 10:29:24;;;;;;;;;;;;;;;;;;4943252;28;19933;-75
2023/08/02 10:32:11;;;;;;;;;;;;;;;;;;4945773;28;19926;-75
2023/08/02 10:34:59;;;;;;;;;;;;;;;;;;4943075;28;19922;-75
2023/08/02 10:37:45;;;;;;;;;;;;;;;;;;4941137;28;20489;-76
2023/08/02 10:40:32;;;;;;;;;;;;;;;;;;4941768;28;19930;-76
2023/08/02 10:43:18;;;;;;;;;;;;;;;;;;4940887;28;19918;-75
2023/08/02 10:46:04;;;;;;;;;;;;;;;;;;4943981;28;19929;-76
2023/08/02 10:48:51;;;;;;;;;;;;;;;;;;4943900;28;19953;-76
2023/08/02 10:51:37;;;;;;;;;;;;;;;;;;4942145;28;19938;-75
2023/08/02 10:54:25;;;;;;;;;;;;;;;;;;4941848;28;20299;-74
2023/08/02 10:57:14;;;;;;;;;;;;;;;;;;4946260;28;19926;-76
2023/08/02 11:00:01;;;;;;;;;;;;;;;;;;4941953;28;19930;-77
2023/08/02 11:02:47;;;;;;;;;;;;;;;;;;4944927;28;19922;-76
2023/08/02 11:05:34;;;;;;;;;;;;;;;;;;4947499;28;19949;-75
2023/08/02 11:08:26;;;;;;;;;;;;;;;;;;4945543;28;19944;-75
2023/08/02 11:11:12;;;;;;;;;;;;;;;;;;4940885;28;19943;-76
2023/08/02 11:13:59;;;;;;;;;;;;;;;;;;4944901;28;19922;-76
2023/08/02 11:16:45;;;;;;;;;;;;;;;;;;4936515;28;19922;-76
2023/08/02 11:19:32;;;;;;;;;;;;;;;;;;4942451;28;19926;-76
2023/08/02 11:22:18;;;;;;;;;;;;;;;;;;4942921;28;19923;-76
2023/08/02 11:25:06;;;;;;;;;;;;;;;;;;4945342;28;19922;-76
2023/08/02 11:27:53;;;;;;;;;;;;;;;;;;4945833;28;19922;-76
2023/08/02 11:30:39;;;;;;;;;;;;;;;;;;4942622;28;19930;-76
2023/08/02 11:33:25;;;;;;;;;;;;;;;;;;4943707;28;19932;-74
2023/08/02 11:36:12;;;;;;;;;;;;;;;;;;4942185;28;19945;-76
2023/08/02 11:38:58;;;;;;;;;;;;;;;;;;4938114;28;20286;-82
2023/08/02 11:41:45;;;;;;;;;;;;;;;;;;4944472;28;19938;-83
2023/08/02 11:44:31;;;;;;;;;;;;;;;;;;4943029;28;20373;-78
2023/08/02 11:47:18;;;;;;;;;;;;;;;;;;4944267;28;19930;-80
2023/08/02 11:50:04;;;;;;;;;;;;;;;;;;4943146;28;19931;-79
2023/08/02 11:52:51;;;;;;;;;;;;;;;;;;4945234;28;19977;-80
2023/08/02 11:55:38;;;;;;;;;;;;;;;;;;4949204;28;19922;-79
2023/08/02 11:58:24;;;;;;;;;;;;;;;;;;4953445;28;19940;-79
2023/08/02 12:01:11;;;;;;;;;;;;;;;;;;4964278;28;19926;-79
2023/08/02 12:03:57;;;;;;;;;;;;;;;;;;4962756;28;19969;-79
2023/08/02 12:06:44;;;;;;;;;;;;;;;;;;4947427;28;20017;-81
2023/08/02 12:09:30;;;;;;;;;;;;;;;;;;4937344;28;19924;-78
2023/08/02 12:12:17;;;;;;;;;;;;;;;;;;4940082;28;20477;-80
2023/08/02 12:15:03;;;;;;;;;;;;;;;;;;4957585;28;19930;-79
2023/08/02 12:17:50;;;;;;;;;;;;;;;;;;4960468;28;20610;-77
2023/08/02 12:20:37;;;;;;;;;;;;;;;;;;4960283;28;19929;-80
2023/08/02 12:23:24;;;;;;;;;;;;;;;;;;4949905;28;19926;-81
2023/08/02 12:26:10;;;;;;;;;;;;;;;;;;4941044;28;19926;-81
2023/08/02 12:28:57;;;;;;;;;;;;;;;;;;4942271;28;20637;-83
2023/08/02 12:31:43;;;;;;;;;;;;;;;;;;4946572;28;19934;-82
2023/08/02 12:34:30;;;;;;;;;;;;;;;;;;4943021;28;19922;-81
2023/08/02 12:37:16;;;;;;;;;;;;;;;;;;4962690;28;19948;-83
2023/08/02 12:40:04;;;;;;;;;;;;;;;;;;4956735;28;19933;-81
2023/08/02 12:42:51;;;;;;;;;;;;;;;;;;4955160;28;20497;-83
2023/08/02 12:45:37;;;;;;;;;;;;;;;;;;4944146;28;19929;-82
2023/08/02 12:48:24;;;;;;;;;;;;;;;;;;4963033;28;21363;-83
2023/08/02 12:51:10;;;;;;;;;;;;;;;;;;4966643;28;19941;-81
2023/08/02 12:53:57;;;;;;;;;;;;;;;;;;4948886;28;19933;-80
2023/08/02 12:56:43;;;;;;;;;;;;;;;;;;4958941;28;20686;-81
2023/08/02 12:59:30;;;;;;;;;;;;;;;;;;4963300;28;19930;-82
2023/08/02 13:02:16;;;;;;;;;;;;;;;;;;4962299;28;19922;-84
2023/08/02 13:05:03;;;;;;;;;;;;;;;;;;4961987;28;19999;-83
2023/08/02 13:07:49;;;;;;;;;;;;;;;;;;4940449;28;19923;-82
2023/08/02 13:10:36;;;;;;;;;;;;;;;;;;4936576;28;19930;-83
2023/08/02 13:13:22;;;;;;;;;;;;;;;;;;4940760;28;19922;-83
2023/08/02 13:16:09;;;;;;;;;;;;;;;;;;4939165;28;19927;-82
2023/08/02 13:18:55;;;;;;;;;;;;;;;;;;4944175;28;19929;-77
2023/08/02 13:21:42;;;;;;;;;;;;;;;;;;4944036;28;19922;-78
2023/08/02 13:24:31;;;;;;;;;;;;;;;;;;4939794;28;19927;-78
2023/08/02 13:27:18;;;;;;;;;;;;;;;;;;4951309;28;19948;-77
2023/08/02 13:30:04;;;;;;;;;;;;;;;;;;4945963;28;19927;-79
2023/08/02 13:32:51;;;;;;;;;;;;;;;;;;4943671;28;19919;-80
2023/08/02 13:35:37;;;;;;;;;;;;;;;;;;4956603;28;19928;-82
2023/08/02 13:38:24;;;;;;;;;;;;;;;;;;4950547;28;19932;-82
2023/08/02 13:41:10;;;;;;;;;;;;;;;;;;4965398;28;19945;-81
2023/08/02 13:43:57;;;;;;;;;;;;;;;;;;4965751;28;19922;-82
2023/08/02 13:46:43;;;;;;;;;;;;;;;;;;4953693;28;19927;-80
2023/08/02 13:49:30;;;;;;;;;;;;;;;;;;4950897;28;19922;-81
2023/08/02 13:52:17;;;;;;;;;;;;;;;;;;4946173;28;19941;-82
2023/08/02 13:55:05;;;;;;;;;;;;;;;;;;4963295;28;19922;-79
2023/08/02 13:57:51;;;;;;;;;;;;;;;;;;4948215;28;19919;-80
2023/08/02 14:00:38;;;;;;;;;;;;;;;;;;4956157;28;19938;-80
2023/08/02 14:03:24;;;;;;;;;;;;;;;;;;4964461;28;19945;-78
2023/08/02 14:06:11;;;;;;;;;;;;;;;;;;4962725;28;20465;-80
2023/08/02 14:08:57;;;;;;;;;;;;;;;;;;4965959;28;19922;-80
2023/08/02 14:11:44;;;;;;;;;;;;;;;;;;4965521;28;19930;-81
2023/08/02 14:14:30;;;;;;;;;;;;;;;;;;4969378;28;19925;-81
2023/08/02 14:17:17;;;;;;;;;;;;;;;;;;4960819;28;19925;-80
2023/08/02 14:20:03;;;;;;;;;;;;;;;;;;4964525;28;20584;-81
2023/08/02 14:22:50;;;;;;;;;;;;;;;;;;4950608;28;19926;-82
2023/08/02 14:25:36;;;;;;;;;;;;;;;;;;4963049;28;19921;-82
2023/08/02 14:28:23;;;;;;;;;;;;;;;;;;4962382;28;19922;-82
2023/08/02 14:31:09;;;;;;;;;;;;;;;;;;4961115;28;19930;-79
2023/08/02 14:33:56;;;;;;;;;;;;;;;;;;4949877;28;19933;-79
2023/08/02 14:36:44;;;;;;;;;;;;;;;;;;4955060;28;19984;-81
2023/08/02 14:39:30;;;;;;;;;;;;;;;;;;4952778;28;19922;-79
2023/08/02 14:42:19;;;;;;;;;;;;;;;;;;4942869;28;19946;-80
2023/08/02 14:45:06;;;;;;;;;;;;;;;;;;4962655;28;19935;-81
2023/08/02 14:47:52;;;;;;;;;;;;;;;;;;4959803;28;19929;-81
2023/08/02 14:50:39;;;;;;;;;;;;;;;;;;4962864;28;20338;-79
2023/08/02 14:53:25;;;;;;;;;;;;;;;;;;4960451;28;20417;-86
2023/08/02 14:56:13;;;;;;;;;;;;;;;;;;4946973;28;19922;-82
2023/08/02 14:58:59;;;;;;;;;;;;;;;;;;4951621;28;19940;-83
2023/08/02 15:01:47;;;;;;;;;;;;;;;;;;4958920;28;19937;-81
2023/08/02 15:04:34;;;;;;;;;;;;;;;;;;4961698;28;19956;-81
2023/08/02 15:07:20;;;;;;;;;;;;;;;;;;4960727;28;19929;-80
2023/08/02 15:10:09;;;;;;;;;;;;;;;;;;4965715;28;19929;-81
2023/08/02 15:12:56;;;;;;;;;;;;;;;;;;4965164;28;19922;-79
2023/08/02 15:15:42;;;;;;;;;;;;;;;;;;4951978;28;19953;-78
2023/08/02 15:18:29;;;;;;;;;;;;;;;;;;4945048;28;19925;-78
2023/08/02 15:21:15;;;;;;;;;;;;;;;;;;4944543;28;19923;-78
2023/08/02 15:24:02;;;;;;;;;;;;;;;;;;4965058;28;19922;-78
2023/08/02 15:26:48;;;;;;;;;;;;;;;;;;4964353;28;19922;-74
2023/08/02 15:29:35;;;;;;;;;;;;;;;;;;4965955;28;19929;-75
2023/08/02 15:32:21;;;;;;;;;;;;;;;;;;4964841;28;19937;-75
2023/08/02 15:35:08;;;;;;;;;;;;;;;;;;4968466;28;19925;-79
2023/08/02 15:37:54;;;;;;;;;;;;;;;;;;4972255;28;19925;-81
2023/08/02 15:40:41;;;;;;;;;;;;;;;;;;4973171;28;19921;-80
2023/08/02 15:43:27;;;;;;;;;;;;;;;;;;4972218;28;19922;-80
2023/08/02 15:46:14;;;;;;;;;;;;;;;;;;4970086;28;19918;-80
2023/08/02 15:49:01;;;;;;;;;;;;;;;;;;4965022;28;19924;-80
2023/08/02 15:51:47;;;;;;;;;;;;;;;;;;4967322;28;19930;-82
2023/08/02 15:54:34;;;;;;;;;;;;;;;;;;4966969;28;20298;-84
2023/08/02 15:57:21;;;;;;;;;;;;;;;;;;4968416;28;19926;-83
2023/08/02 16:00:07;;;;;;;;;;;;;;;;;;4967451;28;19934;-79
2023/08/02 16:02:54;;;;;;;;;;;;;;;;;;4963795;28;19929;-81
2023/08/02 16:05:40;;;;;;;;;;;;;;;;;;4936183;28;20429;-81
2023/08/02 16:08:27;;;;;;;;;;;;;;;;;;4944456;28;19929;-78
2023/08/02 16:11:13;;;;;;;;;;;;;;;;;;4957376;28;20588;-78
2023/08/02 16:14:00;;;;;;;;;;;;;;;;;;4962033;28;19928;-77
2023/08/02 16:16:46;;;;;;;;;;;;;;;;;;4960616;28;19935;-77
2023/08/02 16:19:33;;;;;;;;;;;;;;;;;;4960692;28;19922;-79
2023/08/02 16:22:19;;;;;;;;;;;;;;;;;;4956309;28;19929;-78
2023/08/02 16:25:06;;;;;;;;;;;;;;;;;;4952775;28;19919;-79
2023/08/02 16:27:53;;;;;;;;;;;;;;;;;;4951358;28;20343;-78
2023/08/02 16:30:41;;;;;;;;;;;;;;;;;;4957638;28;19926;-77
2023/08/02 16:33:27;;;;;;;;;;;;;;;;;;4959484;28;19930;-76
2023/08/02 16:36:14;;;;;;;;;;;;;;;;;;4958615;28;19925;-76
2023/08/02 16:39:00;;;;;;;;;;;;;;;;;;4960023;28;19918;-75
2023/08/02 16:41:47;;;;;;;;;;;;;;;;;;4961402;28;19922;-76
2023/08/02 16:44:33;;;;;;;;;;;;;;;;;;4958350;28;20317;-76
2023/08/02 16:47:20;;;;;;;;;;;;;;;;;;4958171;28;19929;-77
2023/08/02 16:50:06;;;;;;;;;;;;;;;;;;4943723;28;20318;-77
2023/08/02 16:52:53;;;;;;;;;;;;;;;;;;4958398;28;20302;-76
2023/08/02 16:55:39;;;;;;;;;;;;;;;;;;4961462;28;20273;-77
2023/08/02 16:58:27;;;;;;;;;;;;;;;;;;4946523;28;19934;-76
2023/08/02 17:01:14;;;;;;;;;;;;;;;;;;4960209;28;19930;-75
2023/08/02 17:04:00;;;;;;;;;;;;;;;;;;4960444;28;19950;-76
2023/08/02 17:06:47;;;;;;;;;;;;;;;;;;4960634;28;20382;-77
2023/08/02 17:09:33;;;;;;;;;;;;;;;;;;4963924;28;19922;-76
2023/08/02 17:12:20;;;;;;;;;;;;;;;;;;4961484;28;19941;-77
2023/08/02 17:15:06;;;;;;;;;;;;;;;;;;4962937;28;19925;-76
2023/08/02 17:17:53;;;;;;;;;;;;;;;;;;4961349;28;19919;-76
2023/08/02 17:20:39;;;;;;;;;;;;;;;;;;4959684;28;19915;-76
2023/08/02 17:23:26;;;;;;;;;;;;;;;;;;4961958;28;19929;-76
2023/08/02 17:26:12;;;;;;;;;;;;;;;;;;4963749;28;20393;-77
2023/08/02 17:28:59;;;;;;;;;;;;;;;;;;4963561;28;19926;-76
2023/08/02 17:31:46;;;;;;;;;;;;;;;;;;4961808;28;19934;-76
2023/08/02 17:34:38;;;;;;;;;;;;;;;;;;4959829;28;19927;-78
2023/08/02 17:37:24;;;;;;;;;;;;;;;;;;4959895;28;19926;-79
2023/08/02 17:40:11;;;;;;;;;;;;;;;;;;4962028;28;19929;-79
2023/08/02 17:42:58;;;;;;;;;;;;;;;;;;4963596;28;19922;-79
2023/08/02 17:45:44;;;;;;;;;;;;;;;;;;4949787;28;19918;-79
2023/08/02 17:48:31;;;;;;;;;;;;;;;;;;4963924;28;19945;-79
2023/08/02 17:51:17;;;;;;;;;;;;;;;;;;4964020;28;19926;-77
2023/08/02 17:54:04;;;;;;;;;;;;;;;;;;4963406;28;19963;-79
2023/08/02 17:56:50;;;;;;;;;;;;;;;;;;4962748;28;19929;-79
2023/08/02 17:59:37;;;;;;;;;;;;;;;;;;4965628;28;20708;-79
2023/08/02 18:02:23;;;;;;;;;;;;;;;;;;4959095;28;19930;-78
2023/08/02 18:05:10;;;;;;;;;;;;;;;;;;4949320;28;19933;-77
2023/08/02 18:07:56;;;;;;;;;;;;;;;;;;4962930;28;19924;-78
2023/08/02 18:10:43;;;;;;;;;;;;;;;;;;4961192;28;19930;-78
2023/08/02 18:13:29;;;;;;;;;;;;;;;;;;4959933;28;19946;-78
2023/08/02 18:16:16;;;;;;;;;;;;;;;;;;4957046;28;20279;-78
2023/08/02 18:19:02;;;;;;;;;;;;;;;;;;4960190;28;19926;-79
2023/08/02 18:21:52;;;;;;;;;;;;;;;;;;4960773;28;19917;-79
2023/08/02 18:24:38;;;;;;;;;;;;;;;;;;4960387;28;20305;-78
2023/08/02 18:27:25;;;;;;;;;;;;;;;;;;4956491;28;19918;-78
2023/08/02 18:30:11;;;;;;;;;;;;;;;;;;4952774;28;19938;-78
2023/08/02 18:32:58;;;;;;;;;;;;;;;;;;4953379;28;20301;-78
2023/08/02 18:35:44;;;;;;;;;;;;;;;;;;4959840;28;19918;-78
2023/08/02 18:38:31;;;;;;;;;;;;;;;;;;4960696;28;19926;-80
2023/08/02 18:41:17;;;;;;;;;;;;;;;;;;4946769;28;19942;-79
2023/08/02 18:44:04;;;;;;;;;;;;;;;;;;4963050;28;19922;-79
2023/08/02 18:46:50;;;;;;;;;;;;;;;;;;4961264;28;19918;-78
2023/08/02 18:49:37;;;;;;;;;;;;;;;;;;4936449;28;19926;-77
2023/08/02 18:52:25;;;;;;;;;;;;;;;;;;4942546;28;19931;-82
2023/08/02 18:55:12;;;;;;;;;;;;;;;;;;4947978;28;20471;-79
2023/08/02 18:57:59;;;;;;;;;;;;;;;;;;4961710;28;19922;-78